createdAt,value
2018-04-07T00:00:48.528Z,7.30
2018-04-07T00:03:15.935Z,7.20
2018-04-07T00:05:42.471Z,7.10
2018-04-07T00:08:09.070Z,7.00
2018-04-07T00:10:37.193Z,7.00
2018-04-07T00:13:03.686Z,6.90
2018-04-07T00:15:31.045Z,6.90
2018-04-07T00:17:57.551Z,6.90
2018-04-07T00:20:24.792Z,6.90
2018-04-07T00:22:51.243Z,6.90
2018-04-07T00:25:18.454Z,7.00
2018-04-07T00:27:44.944Z,7.00
2018-04-07T00:30:11.568Z,7.00
2018-04-07T00:32:38.819Z,6.90
2018-04-07T00:35:06.026Z,6.90
2018-04-07T00:37:32.560Z,6.90
2018-04-07T00:39:59.024Z,6.90
2018-04-07T00:42:25.529Z,6.90
2018-04-07T00:44:52.019Z,6.90
2018-04-07T00:47:18.483Z,6.90
2018-04-07T00:49:45.059Z,6.90
2018-04-07T00:52:11.584Z,6.70
2018-04-07T00:54:38.164Z,6.80
2018-04-07T00:57:04.622Z,6.80
2018-04-07T00:59:31.170Z,6.80
2018-04-07T01:01:58.421Z,6.80
2018-04-07T01:04:24.902Z,6.80
2018-04-07T01:06:52.086Z,6.80
2018-04-07T01:09:18.592Z,6.80
2018-04-07T01:11:45.794Z,6.80
2018-04-07T01:14:12.313Z,6.80
2018-04-07T01:16:38.842Z,6.80
2018-04-07T01:19:05.416Z,6.80
2018-04-07T01:21:31.938Z,6.90
2018-04-07T01:23:58.512Z,6.80
2018-04-07T01:26:25.856Z,6.80
2018-04-07T01:28:52.341Z,6.80
2018-04-07T01:31:18.830Z,6.80
2018-04-07T01:33:46.084Z,6.80
2018-04-07T01:36:12.659Z,6.80
2018-04-07T01:38:39.156Z,6.80
2018-04-07T01:41:06.359Z,6.70
2018-04-07T01:43:32.862Z,6.70
2018-04-07T01:45:59.454Z,6.60
2018-04-07T01:48:25.907Z,6.70
2018-04-07T01:50:53.106Z,6.50
2018-04-07T01:53:19.583Z,6.50
2018-04-07T01:55:46.054Z,6.50
2018-04-07T01:58:13.355Z,6.50
2018-04-07T02:00:39.862Z,6.50
2018-04-07T02:03:06.318Z,6.50
2018-04-07T02:05:32.825Z,6.40
2018-04-07T02:07:59.303Z,6.50
2018-04-07T02:10:25.819Z,6.50
2018-04-07T02:12:52.411Z,6.30
2018-04-07T02:15:18.927Z,6.40
2018-04-07T02:17:45.454Z,6.50
2018-04-07T02:20:11.881Z,6.50
2018-04-07T02:22:38.311Z,6.50
2018-04-07T02:25:04.835Z,6.50
2018-04-07T02:27:31.259Z,6.50
2018-04-07T02:29:57.775Z,6.40
2018-04-07T02:32:24.273Z,6.40
2018-04-07T02:34:51.454Z,6.30
2018-04-07T02:37:17.976Z,6.30
2018-04-07T02:39:44.451Z,6.30
2018-04-07T02:42:10.977Z,6.20
2018-04-07T02:44:37.494Z,6.20
2018-04-07T02:47:03.982Z,6.20
2018-04-07T02:49:31.242Z,6.30
2018-04-07T02:51:57.715Z,6.30
2018-04-07T02:54:24.168Z,6.30
2018-04-07T02:56:50.659Z,6.30
2018-04-07T02:59:17.251Z,6.30
2018-04-07T03:01:43.716Z,6.20
2018-04-07T03:04:10.202Z,6.20
2018-04-07T03:06:36.683Z,6.20
2018-04-07T03:09:03.219Z,6.10
2018-04-07T03:11:30.431Z,6.00
2018-04-07T03:13:56.887Z,5.90
2018-04-07T03:16:23.375Z,5.90
2018-04-07T03:18:49.874Z,5.90
2018-04-07T03:21:17.100Z,5.80
2018-04-07T03:23:43.579Z,5.80
2018-04-07T03:26:10.036Z,5.90
2018-04-07T03:28:36.507Z,5.90
2018-04-07T03:31:02.986Z,5.80
2018-04-07T03:33:29.464Z,5.70
2018-04-07T03:35:55.964Z,5.70
2018-04-07T03:38:22.434Z,5.80
2018-04-07T03:40:48.908Z,5.80
2018-04-07T03:43:15.370Z,5.80
2018-04-07T03:45:41.831Z,5.90
2018-04-07T03:48:08.331Z,5.90
2018-04-07T03:50:34.915Z,5.90
2018-04-07T03:53:01.407Z,5.90
2018-04-07T03:55:27.854Z,5.90
2018-04-07T03:57:54.296Z,5.90
2018-04-07T04:00:20.935Z,5.90
2018-04-07T04:02:47.436Z,6.00
2018-04-07T04:05:14.023Z,5.80
2018-04-07T04:07:41.319Z,6.00
2018-04-07T04:10:07.819Z,6.00
2018-04-07T04:12:35.019Z,5.90
2018-04-07T04:15:01.601Z,5.90
2018-04-07T04:17:28.066Z,5.80
2018-04-07T04:19:54.584Z,5.70
2018-04-07T04:22:21.874Z,5.90
2018-04-07T04:24:48.370Z,5.80
2018-04-07T04:27:15.557Z,5.90
2018-04-07T04:29:42.099Z,5.80
2018-04-07T04:32:08.587Z,5.60
2018-04-07T04:34:35.829Z,5.60
2018-04-07T04:37:02.385Z,5.60
2018-04-07T04:39:29.596Z,5.50
2018-04-07T04:41:56.058Z,5.50
2018-04-07T04:44:23.410Z,5.40
2018-04-07T04:46:49.920Z,5.40
2018-04-07T04:49:16.352Z,5.40
2018-04-07T04:51:42.854Z,5.50
2018-04-07T04:54:09.359Z,5.50
2018-04-07T04:56:36.866Z,5.70
2018-04-07T04:59:03.316Z,5.70
2018-04-07T05:01:29.765Z,5.70
2018-04-07T05:03:56.242Z,5.70
2018-04-07T05:06:22.695Z,5.70
2018-04-07T05:08:49.295Z,5.80
2018-04-07T05:11:15.755Z,5.90
2018-04-07T05:13:42.230Z,6.00
2018-04-07T05:16:08.722Z,6.20
2018-04-07T05:18:35.307Z,6.40
2018-04-07T05:21:02.579Z,7.50
2018-04-07T05:23:29.105Z,7.50
2018-04-07T05:25:56.306Z,8.20
2018-04-07T05:28:22.878Z,8.20
2018-04-07T05:30:49.682Z,8.50
2018-04-07T05:33:16.222Z,8.60
2018-04-07T05:35:42.767Z,9.00
2018-04-07T05:38:09.313Z,9.60
2018-04-07T05:40:35.754Z,9.80
2018-04-07T05:43:02.259Z,10.70
2018-04-07T05:45:28.725Z,11.20
2018-04-07T05:47:55.178Z,11.30
2018-04-07T05:50:22.419Z,11.00
2018-04-07T05:52:48.883Z,11.00
2018-04-07T05:55:15.335Z,10.90
2018-04-07T05:57:41.768Z,10.80
2018-04-07T06:00:08.278Z,11.20
2018-04-07T06:02:34.743Z,11.30
2018-04-07T06:05:01.271Z,11.80
2018-04-07T06:07:27.738Z,12.50
2018-04-07T06:09:54.201Z,12.60
2018-04-07T06:12:21.543Z,11.30
2018-04-07T06:14:48.120Z,11.20
2018-04-07T06:17:14.606Z,11.50
2018-04-07T06:19:41.048Z,11.20
2018-04-07T06:22:07.502Z,10.60
2018-04-07T06:24:33.963Z,11.20
2018-04-07T06:27:00.491Z,12.40
2018-04-07T06:29:27.130Z,11.60
2018-04-07T06:31:53.626Z,11.50
2018-04-07T06:34:20.844Z,11.00
2018-04-07T06:36:48.799Z,11.00
2018-04-07T06:39:15.315Z,12.10
2018-04-07T06:41:41.779Z,11.80
2018-04-07T06:44:08.243Z,12.10
2018-04-07T06:46:34.695Z,10.70
2018-04-07T06:49:01.931Z,12.00
2018-04-07T06:51:29.101Z,12.70
2018-04-07T06:53:55.701Z,12.60
2018-04-07T06:56:22.119Z,12.80
2018-04-07T06:58:48.686Z,12.20
2018-04-07T07:01:16.016Z,14.40
2018-04-07T07:03:42.513Z,14.40
2018-04-07T07:06:09.695Z,14.50
2018-04-07T07:08:37.019Z,14.60
2018-04-07T07:11:03.546Z,14.60
2018-04-07T07:13:30.059Z,16.60
2018-04-07T07:15:57.416Z,16.00
2018-04-07T07:18:24.816Z,15.70
2018-04-07T07:20:51.339Z,15.60
2018-04-07T07:23:17.835Z,15.90
2018-04-07T07:25:45.024Z,18.10
2018-04-07T07:28:11.865Z,19.20
2018-04-07T07:30:38.330Z,18.00
2018-04-07T07:33:04.904Z,16.00
2018-04-07T07:35:32.088Z,17.70
2018-04-07T07:37:58.552Z,17.70
2018-04-07T07:40:25.112Z,18.30
2018-04-07T07:42:52.406Z,19.20
2018-04-07T07:45:18.923Z,19.20
2018-04-07T07:47:45.397Z,21.00
2018-04-07T07:50:11.899Z,19.30
2018-04-07T07:52:38.451Z,19.70
2018-04-07T07:55:04.984Z,19.20
2018-04-07T07:57:31.471Z,17.90
2018-04-07T07:59:58.834Z,18.00
2018-04-07T08:02:25.331Z,18.00
2018-04-07T08:04:51.839Z,18.60
2018-04-07T08:07:18.343Z,19.70
2018-04-07T08:09:45.570Z,19.00
2018-04-07T08:12:12.111Z,19.00
2018-04-07T08:14:38.681Z,17.00
2018-04-07T08:17:05.210Z,17.50
2018-04-07T08:19:31.687Z,16.80
2018-04-07T08:21:58.194Z,16.40
2018-04-07T08:24:24.639Z,17.80
2018-04-07T08:26:51.158Z,18.80
2018-04-07T08:29:17.674Z,18.30
2018-04-07T08:31:45.108Z,18.50
2018-04-07T08:34:11.749Z,18.60
2018-04-07T08:36:38.988Z,20.20
2018-04-07T08:39:05.472Z,20.20
2018-04-07T08:41:31.895Z,21.10
2018-04-07T08:43:58.464Z,20.70
2018-04-07T08:46:25.005Z,21.40
2018-04-07T08:48:52.199Z,21.90
2018-04-07T08:51:18.752Z,21.80
2018-04-07T08:53:45.435Z,21.00
2018-04-07T08:56:11.923Z,20.70
2018-04-07T08:58:38.461Z,20.20
2018-04-07T09:01:05.007Z,19.90
2018-04-07T09:03:31.574Z,18.20
2018-04-07T09:05:58.097Z,18.50
2018-04-07T09:08:24.643Z,18.80
2018-04-07T09:10:52.783Z,17.90
2018-04-07T09:13:19.289Z,18.00
2018-04-07T09:15:46.694Z,18.70
2018-04-07T09:18:13.286Z,18.70
2018-04-07T09:20:40.574Z,18.60
2018-04-07T09:23:07.060Z,18.60
2018-04-07T09:25:33.582Z,19.20
2018-04-07T09:28:00.139Z,19.90
2018-04-07T09:30:27.457Z,20.80
2018-04-07T09:32:53.985Z,20.80
2018-04-07T09:35:20.566Z,21.00
2018-04-07T09:37:47.969Z,22.50
2018-04-07T09:40:14.452Z,22.50
2018-04-07T09:42:41.672Z,22.60
2018-04-07T09:45:08.460Z,22.50
2018-04-07T09:47:35.720Z,21.70
2018-04-07T09:50:02.134Z,21.70
2018-04-07T09:52:29.404Z,22.50
2018-04-07T09:54:56.055Z,22.50
2018-04-07T09:57:22.545Z,22.80
2018-04-07T09:59:49.127Z,21.70
2018-04-07T10:02:19.328Z,20.90
2018-04-07T10:04:46.542Z,20.70
2018-04-07T10:07:12.994Z,20.70
2018-04-07T10:09:40.379Z,20.70
2018-04-07T10:12:06.837Z,20.60
2018-04-07T10:14:33.437Z,20.50
2018-04-07T10:17:00.716Z,21.00
2018-04-07T10:19:27.248Z,21.00
2018-04-07T10:24:50.895Z,21.20
2018-04-07T10:27:17.419Z,21.20
2018-04-07T10:29:43.859Z,21.30
2018-04-07T10:32:10.352Z,21.60
2018-04-07T10:34:36.828Z,22.10
2018-04-07T10:37:03.276Z,21.80
2018-04-07T10:39:30.480Z,22.10
2018-04-07T10:41:56.991Z,22.10
2018-04-07T10:44:23.467Z,22.90
2018-04-07T10:46:50.061Z,22.60
2018-04-07T10:49:16.567Z,22.60
2018-04-07T10:51:43.773Z,22.80
2018-04-07T10:54:10.263Z,22.80
2018-04-07T10:56:36.744Z,23.20
2018-04-07T10:59:03.511Z,23.20
2018-04-07T11:01:30.013Z,23.40
2018-04-07T11:03:56.513Z,23.60
2018-04-07T11:06:22.959Z,22.80
2018-04-07T11:08:49.606Z,23.10
2018-04-07T11:11:16.111Z,23.40
2018-04-07T11:13:42.546Z,24.10
2018-04-07T11:16:09.871Z,24.20
2018-04-07T11:18:36.348Z,24.80
2018-04-07T11:21:02.929Z,25.20
2018-04-07T11:23:29.430Z,25.40
2018-04-07T11:25:55.920Z,24.50
2018-04-07T11:28:23.215Z,23.70
2018-04-07T11:30:50.072Z,23.60
2018-04-07T11:33:16.571Z,24.10
2018-04-07T11:35:43.167Z,23.80
2018-04-07T11:38:09.706Z,24.30
2018-04-07T11:40:36.201Z,25.10
2018-04-07T11:43:02.700Z,26.00
2018-04-07T11:45:29.894Z,26.30
2018-04-07T11:47:56.440Z,26.30
2018-04-07T11:50:22.959Z,26.20
2018-04-07T11:52:49.509Z,26.00
2018-04-07T11:55:15.955Z,25.60
2018-04-07T11:57:42.652Z,26.10
2018-04-07T12:00:09.122Z,26.90
2018-04-07T12:02:35.622Z,27.10
2018-04-07T12:05:02.084Z,27.50
2018-04-07T12:07:28.568Z,27.20
2018-04-07T12:09:55.836Z,26.10
2018-04-07T12:12:22.351Z,26.10
2018-04-07T12:14:49.623Z,25.90
2018-04-07T12:17:16.173Z,25.90
2018-04-07T12:19:42.679Z,27.20
2018-04-07T12:22:09.908Z,28.70
2018-04-07T12:24:36.480Z,28.60
2018-04-07T12:27:02.927Z,29.00
2018-04-07T12:29:29.462Z,27.80
2018-04-07T12:31:55.929Z,28.50
2018-04-07T12:34:22.487Z,29.50
2018-04-07T12:36:49.779Z,27.50
2018-04-07T12:39:16.249Z,27.40
2018-04-07T12:41:43.504Z,28.90
2018-04-07T12:44:09.967Z,28.90
2018-04-07T12:46:37.444Z,29.50
2018-04-07T12:49:04.707Z,28.90
2018-04-07T12:51:31.142Z,28.80
2018-04-07T12:53:57.731Z,29.50
2018-04-07T12:56:24.223Z,27.90
2018-04-07T12:58:50.795Z,25.70
2018-04-07T13:01:18.090Z,26.00
2018-04-07T13:03:44.544Z,26.00
2018-04-07T13:06:11.035Z,25.30
2018-04-07T13:08:38.271Z,25.30
2018-04-07T13:11:05.530Z,26.30
2018-04-07T13:13:32.043Z,26.20
2018-04-07T13:15:58.550Z,25.60
2018-04-07T13:18:25.143Z,25.40
2018-04-07T13:20:51.571Z,25.50
2018-04-07T13:23:18.759Z,26.00
2018-04-07T13:25:45.239Z,25.90
2018-04-07T13:28:11.735Z,26.30
2018-04-07T13:30:38.323Z,26.00
2018-04-07T13:33:04.796Z,26.10
2018-04-07T13:35:31.410Z,26.10
2018-04-07T13:37:58.597Z,26.10
2018-04-07T13:40:25.068Z,26.10
2018-04-07T13:42:51.595Z,26.00
2018-04-07T13:45:18.054Z,26.10
2018-04-07T13:47:45.274Z,26.10
2018-04-07T13:50:11.710Z,26.10
2018-04-07T13:52:38.969Z,25.80
2018-04-07T13:55:05.420Z,25.80
2018-04-07T13:57:32.656Z,26.30
2018-04-07T13:59:59.203Z,26.30
2018-04-07T14:02:26.395Z,26.70
2018-04-07T14:04:52.894Z,26.70
2018-04-07T14:07:20.186Z,26.40
2018-04-07T14:09:46.652Z,26.40
2018-04-07T14:12:13.085Z,25.90
2018-04-07T14:14:39.612Z,25.90
2018-04-07T14:17:06.077Z,25.80
2018-04-07T14:19:32.587Z,25.70
2018-04-07T14:21:59.071Z,26.10
2018-04-07T14:24:25.653Z,25.90
2018-04-07T14:26:52.071Z,26.40
2018-04-07T14:29:18.623Z,26.40
2018-04-07T14:31:45.052Z,26.10
2018-04-07T14:34:11.567Z,25.90
2018-04-07T14:37:11.064Z,25.30
2018-04-07T14:39:38.287Z,25.80
2018-04-07T14:42:05.626Z,25.20
2018-04-07T14:44:32.818Z,25.10
2018-04-07T14:46:59.415Z,25.10
2018-04-07T14:49:26.631Z,25.70
2018-04-07T14:51:53.143Z,25.70
2018-04-07T14:54:19.631Z,25.40
2018-04-07T14:56:46.121Z,26.20
2018-04-07T14:59:12.765Z,25.80
2018-04-07T15:01:39.276Z,26.00
2018-04-07T15:04:05.727Z,25.80
2018-04-07T15:06:32.262Z,25.50
2018-04-07T15:08:58.721Z,25.50
2018-04-07T15:11:25.402Z,25.70
2018-04-07T15:13:52.828Z,25.80
2018-04-07T15:16:19.364Z,25.80
2018-04-07T15:18:45.962Z,25.30
2018-04-07T15:21:12.444Z,25.40
2018-04-07T15:23:39.047Z,25.80
2018-04-07T15:26:05.479Z,25.70
2018-04-07T15:28:32.608Z,26.00
2018-04-07T15:30:59.292Z,26.30
2018-04-07T15:33:25.822Z,26.00
2018-04-07T15:35:52.421Z,25.40
2018-04-07T15:38:18.945Z,24.90
2018-04-07T15:40:45.655Z,24.50
2018-04-07T15:43:12.698Z,25.00
2018-04-07T15:45:40.354Z,24.70
2018-04-07T15:48:07.582Z,24.10
2018-04-07T15:50:35.108Z,24.10
2018-04-07T15:53:01.809Z,23.90
2018-04-07T15:55:29.223Z,23.90
2018-04-07T15:57:55.726Z,23.90
2018-04-07T16:00:22.356Z,23.90
2018-04-07T16:02:48.866Z,23.80
2018-04-07T16:05:16.232Z,24.30
2018-04-07T16:07:43.544Z,23.80
2018-04-07T16:10:10.082Z,23.80
2018-04-07T16:12:36.638Z,24.20
2018-04-07T16:15:04.064Z,23.80
2018-04-07T16:17:30.642Z,23.80
2018-04-07T16:19:57.957Z,23.30
2018-04-07T16:22:24.490Z,23.30
2018-04-07T16:24:50.958Z,22.80
2018-04-07T16:27:17.445Z,22.90
2018-04-07T16:29:43.964Z,22.90
2018-04-07T16:32:10.443Z,22.90
2018-04-07T16:34:36.916Z,23.00
2018-04-07T16:37:04.312Z,22.70
2018-04-07T16:39:30.759Z,22.70
2018-04-07T16:41:57.267Z,22.40
2018-04-07T16:44:23.783Z,22.10
2018-04-07T16:46:50.277Z,21.70
2018-04-07T16:49:16.765Z,21.70
2018-04-07T16:51:43.224Z,21.60
2018-04-07T16:54:09.848Z,21.40
2018-04-07T16:56:36.266Z,21.10
2018-04-07T16:59:02.740Z,20.50
2018-04-07T17:01:29.267Z,19.90
2018-04-07T17:03:56.250Z,19.40
2018-04-07T17:06:22.820Z,19.10
2018-04-07T17:08:50.341Z,18.90
2018-04-07T17:11:17.098Z,18.70
2018-04-07T17:13:43.794Z,18.60
2018-04-07T17:16:11.158Z,18.50
2018-04-07T17:18:37.705Z,18.40
2018-04-07T17:21:05.635Z,18.30
2018-04-07T17:23:32.360Z,18.30
2018-04-07T17:25:58.942Z,18.20
2018-04-07T17:28:26.262Z,18.10
2018-04-07T17:30:53.230Z,18.00
2018-04-07T17:33:20.764Z,17.70
2018-04-07T17:35:47.556Z,17.70
2018-04-07T17:38:14.822Z,17.50
2018-04-07T17:40:42.854Z,17.50
2018-04-07T17:43:10.306Z,17.40
2018-04-07T17:45:37.643Z,17.20
2018-04-07T17:48:04.325Z,17.20
2018-04-07T17:50:32.674Z,17.10
2018-04-07T17:53:00.318Z,16.90
2018-04-07T17:55:27.673Z,16.90
2018-04-07T17:57:54.703Z,16.80
2018-04-07T18:00:21.339Z,16.70
2018-04-07T18:02:47.900Z,16.50
2018-04-07T18:05:14.958Z,16.40
2018-04-07T18:07:41.668Z,16.30
2018-04-07T18:10:08.124Z,16.20
2018-04-07T18:12:35.004Z,16.20
2018-04-07T18:15:02.669Z,16.10
2018-04-07T18:17:30.111Z,16.00
2018-04-07T18:19:56.605Z,16.00
2018-04-07T18:22:23.168Z,16.00
2018-04-07T18:24:50.935Z,16.00
2018-04-07T18:27:17.432Z,15.90
2018-04-07T18:29:43.980Z,15.90
2018-04-07T18:32:10.771Z,15.70
2018-04-07T18:34:38.112Z,15.80
2018-04-07T18:37:04.949Z,15.80
2018-04-07T18:39:31.748Z,15.70
2018-04-07T18:41:58.269Z,15.50
2018-04-07T18:44:24.809Z,15.40
2018-04-07T18:46:51.550Z,15.30
2018-04-07T18:49:18.116Z,15.20
2018-04-07T18:51:44.915Z,15.10
2018-04-07T18:54:11.963Z,15.10
2018-04-07T18:56:38.745Z,15.00
2018-04-07T18:59:05.324Z,14.90
2018-04-07T19:01:32.539Z,14.80
2018-04-07T19:03:59.044Z,14.70
2018-04-07T19:06:25.511Z,14.80
2018-04-07T19:08:52.035Z,14.80
2018-04-07T19:11:18.605Z,14.70
2018-04-07T19:13:45.377Z,14.60
2018-04-07T19:16:11.860Z,14.60
2018-04-07T19:18:38.499Z,14.50
2018-04-07T19:21:04.975Z,14.40
2018-04-07T19:23:31.548Z,14.30
2018-04-07T19:25:58.098Z,14.10
2018-04-07T19:28:24.569Z,14.10
2018-04-07T19:30:51.862Z,14.00
2018-04-07T19:33:18.350Z,14.00
2018-04-07T19:35:45.573Z,14.10
2018-04-07T19:38:12.102Z,14.10
2018-04-07T19:40:38.619Z,14.00
2018-04-07T19:43:05.144Z,13.90
2018-04-07T19:45:31.848Z,13.80
2018-04-07T19:47:59.335Z,13.80
2018-04-07T19:50:25.884Z,13.80
2018-04-07T19:52:52.398Z,13.70
2018-04-07T19:55:19.024Z,13.70
2018-04-07T19:57:45.635Z,13.60
2018-04-07T20:00:12.151Z,13.40
2018-04-07T20:02:38.753Z,13.20
2018-04-07T20:05:05.256Z,13.00
2018-04-07T20:07:32.503Z,12.90
2018-04-07T20:09:59.771Z,13.00
2018-04-07T20:12:27.466Z,13.00
2018-04-07T20:14:53.964Z,13.00
2018-04-07T20:17:21.272Z,12.90
2018-04-07T20:19:47.740Z,12.90
2018-04-07T20:22:15.058Z,13.00
2018-04-07T20:24:41.599Z,13.00
2018-04-07T20:27:08.290Z,13.00
2018-04-07T20:29:34.899Z,13.00
2018-04-07T20:32:02.191Z,13.00
2018-04-07T20:34:29.299Z,12.80
2018-04-07T20:36:56.519Z,12.80
2018-04-07T20:39:23.035Z,12.80
2018-04-07T20:41:49.526Z,12.60
2018-04-07T20:44:28.952Z,12.60
2018-04-07T20:46:55.914Z,12.60
2018-04-07T20:49:22.567Z,12.50
2018-04-07T20:51:49.223Z,12.60
2018-04-07T20:54:15.672Z,12.60
2018-04-07T20:56:42.193Z,12.50
2018-04-07T20:59:08.686Z,12.50
2018-04-07T21:01:35.918Z,12.30
2018-04-07T21:04:02.387Z,12.30
2018-04-07T21:06:29.684Z,12.10
2018-04-07T21:08:56.374Z,12.00
2018-04-07T21:11:22.940Z,12.00
2018-04-07T21:13:49.814Z,11.90
2018-04-07T21:16:16.568Z,11.90
2018-04-07T21:18:43.051Z,11.80
2018-04-07T21:21:09.485Z,11.70
2018-04-07T21:23:36.003Z,11.70
2018-04-07T21:26:02.491Z,11.90
2018-04-07T21:28:29.012Z,12.10
2018-04-07T21:30:55.513Z,12.40
2018-04-07T21:33:22.128Z,12.40
2018-04-07T21:35:49.399Z,12.20
2018-04-07T21:38:15.951Z,12.20
2018-04-07T21:40:42.407Z,12.00
2018-04-07T21:43:08.899Z,12.10
2018-04-07T21:45:35.428Z,12.00
2018-04-07T21:48:02.748Z,11.70
2018-04-07T21:50:29.214Z,11.60
2018-04-07T21:52:56.426Z,11.50
2018-04-07T21:55:23.676Z,11.40
2018-04-07T21:57:50.223Z,11.40
2018-04-07T22:00:16.763Z,11.30
2018-04-07T22:02:43.355Z,11.30
2018-04-07T22:05:09.854Z,11.30
2018-04-07T22:07:37.061Z,11.40
2018-04-07T22:10:03.563Z,11.30
2018-04-07T22:12:30.052Z,11.20
2018-04-07T22:14:56.679Z,11.10
2018-04-07T22:17:23.154Z,11.10
2018-04-07T22:19:49.724Z,11.10
2018-04-07T22:22:16.154Z,10.90
2018-04-07T22:24:42.731Z,10.80
2018-04-07T22:27:09.221Z,10.70
2018-04-07T22:29:35.654Z,10.70
2018-04-07T22:32:02.154Z,10.90
2018-04-07T22:34:29.374Z,10.80
2018-04-07T22:36:55.874Z,10.80
2018-04-07T22:39:22.345Z,10.70
2018-04-07T22:41:48.923Z,10.60
2018-04-07T22:44:15.342Z,10.70
2018-04-07T22:46:42.586Z,10.80
2018-04-07T22:49:09.816Z,10.80
2018-04-07T22:51:36.379Z,10.70
2018-04-07T22:54:03.588Z,10.50
2018-04-07T22:56:30.042Z,10.50
2018-04-07T22:58:56.512Z,10.40
2018-04-07T23:01:22.961Z,10.30
2018-04-07T23:03:49.661Z,10.30
2018-04-07T23:06:16.855Z,10.20
2018-04-07T23:08:43.386Z,10.10
2018-04-07T23:11:09.954Z,10.20
2018-04-07T23:13:36.486Z,10.00
2018-04-07T23:16:03.055Z,9.80
2018-04-07T23:18:30.442Z,9.80
2018-04-07T23:20:56.946Z,9.80
2018-04-07T23:23:24.158Z,9.50
2018-04-07T23:25:50.691Z,9.40
2018-04-07T23:28:17.178Z,9.30
2018-04-07T23:30:44.423Z,9.40
2018-04-07T23:33:11.669Z,9.30
2018-04-07T23:35:38.927Z,9.30
2018-04-07T23:38:06.120Z,9.30
2018-04-07T23:40:32.603Z,9.30
2018-04-07T23:42:59.779Z,9.20
2018-04-07T23:45:26.255Z,9.20
2018-04-07T23:47:52.804Z,9.30
2018-04-07T23:50:19.299Z,9.30
2018-04-07T23:52:45.903Z,9.40
2018-04-07T23:55:13.126Z,9.50
2018-04-07T23:57:39.621Z,9.40
